Schwenksville, PA

2:15 PM EDT on May 06, 2015 (GMT -0400)
Doylestown | | Change Station
CLOSE
Current Station
Airport
Location: Doylestown,
Elevation: 394 ft
Nearby Weather Stations

Elev 394 ft 40.33 °N, 75.12 °W | Updated 1 hour ago

Overcast
Overcast
66 °F
Feels Like 66 °F
N
5
Wind Variable Wind from NNE

Today
High -- | Low -- °F
--% Chance of Precip.
Yesterday
High -- | Low -- °F
Precip. -- in
5:55 AM 8:01 PM
Waning Gibbous, 93% visible
Pressure 30.26 in
Visibility 10.0 miles
Clouds Overcast 9000 ft
Dew Point 45 °F
Humidity 47%
Rainfall 0.00 in
Snow Depth Not available.
UV 3 out of 12
Pollen 5.80 out of 12
Air Quality Not available.
Flu Activity Sporadic
METAR KDYL 061654Z AUTO 02004KT 10SM OVC090 19/07 A3027 RMK AO2 SLP246 T01890072

More Conditions Fewer Conditions

Pressure 30.26 in
Visibility 10.0 miles
Clouds Overcast 9000 ft
Dew Point 45 °F
Humidity 47%
Rainfall 0.00 in
Snow Depth Not available.
UV 3 out of 12
Pollen 5.80 out of 12
Air Quality Not available.
Flu Activity Sporadic
METAR KDYL 061654Z AUTO 02004KT 10SM OVC090 19/07 A3027 RMK AO2 SLP246 T01890072

More Conditions Fewer Conditions

Nowcast | as of 1:42 PM EDT on May 6, 2015

Between now and 400 PM, scattered light rain showers will continue to affect much of eastern Pennsylvania. Additional rainfall should be less than a tenth of an inch.

×

10-Day Weather Forecast

Almanac

Astronomy

May. 06, 2015 Rise Set
Actual Time
Civil Twilight
Nautical Twilight
Astronomical Twilight
Moon
Length of Visible Light
Length of Day
Tomorrow will be .
, % of the Moon is Illuminated

Today's Extremes

State Highs State Lows

Community

WunderPhotos

Upload Photos

1,818,961 photos uploaded!

WunderBlogs® & News

Nearby

Air Quality

  Air Quality AQ Index Pollutant
Not available.

Snow Depth

Station Depth Elevation

Earthquake Activity

City Distance Mag. Time & Date
Minimum magnitude displayed is 2.5.

Coastal Water Temperatures

Place Temperature

Stations

Nearby Weather Stations

Station Location Temp. Windchill Dew Point Humidity Wind Precip. Elev Updated Type